Impacts METAR Board
IDs:

KMEM - Memphis Intl, TN, US

Updated at: 2100 UTC 06 Dec 2019
Potential Impact None Slight Moderate High
Time 06/09Z 06/10Z 06/11Z 06/12Z 06/13Z 06/14Z 06/15Z 06/16Z 06/17Z 06/18Z 06/19Z 06/20Z 06/21Z
Temp55 56 52 51 51 50 50 52 53 55 56 56 56
Dewpt40 42 47 48 49 49 49 50 50 50 50 50 50
Altim30.03 30.01 30.01 30.07 30.07 30.08 30.08 30.10 30.11 30.11 30.10 30.12 30.14
VIS10 10 9 1.75 8 6 8 6 8 10 10 10 10
CIG110 45 36 25 19 35 39 4 8 10 25 18 17
CoverBKNOVCOVCOVCOVCOVCOVCOVCOVCOVCOVCOVCOVC
FltCatVFRVFRVFRIFRMVFRVFRVFRLIFRIFRMVFRMVFRMVFRMVFR
WX-----RA+TSRA BR-TSRA-RA BR--BR----------
WDir170180170010001301100350350350360
WSpd6 11 8 5 4 0 5 4 0 3 8 7 8
WGst-- 16 -- -- -- -- -- -- -- -- -- -- --
Raw hourly METARs
KMEM 060854Z 17006KT 10SM FEW055 BKN110 13/04 A3003 RMK AO2 SLP168 T01280044 58004 $
KMEM 060954Z 18011G16KT 10SM BKN045 OVC120 13/06 A3001 RMK AO2 SLP162 T01330056 $
KMEM 061054Z 17008KT 9SM -RA BKN036 BKN050 OVC075 11/08 A3001 RMK AO2 LTG DSNT N RAB0955 SLP159 P0002 T01110083 $
KMEM 061204Z VRB05KT 1 3/4SM +TSRA BR SCT017 OVC025CB 11/09 A3007 RMK AO2 LTG DSNT SW PRESRR OCNL LTGIC OHD TS OHD MOV E P0022 T01060089 $
KMEM 061254Z 10004KT 8SM -TSRA BKN019 OVC033CB 11/09 A3007 RMK AO2 LTG DSNT E AND SE SLP180 OCNL LTGIC E-SE TS E-SE MOV E P0036 T01060094 $
KMEM 061354Z 00000KT 6SM -RA BR OVC035 10/09 A3008 RMK AO2 TSE10 SLP183 P0002 T01000094 $
KMEM 061454Z 13005KT 8SM FEW021 OVC039 10/09 A3008 RMK AO2 RAE27 SLP185 VCSH P0000 60038 T01000094 51010 $
KMEM 061556Z 11004KT 6SM BR BKN004 OVC039 11/10 A3010 RMK AO2 T01110100 $
KMEM 061654Z 00000KT 8SM BKN008 BKN015 OVC030 12/10 A3011 RMK AO2 SLP195 CIG 006V010 T01170100 $
KMEM 061754Z 35003KT 10SM FEW005 BKN010 OVC028 13/10 A3011 RMK AO2 SLP194 60038 T01280100 10128 20100 50009 $
KMEM 061854Z 35008KT 10SM FEW015 OVC025 13/10 A3010 RMK AO2 SLP191 T01330100 $
KMEM 061954Z 35007KT 10SM BKN018 OVC027 13/10 A3012 RMK AO2 SLP198 T01330100 $
KMEM 062054Z 36008KT 10SM BKN017 OVC027 13/10 A3014 RMK AO2 SLP204 T01330100 53010 $



Page loaded:  21:20 UTC  |   01:20 PM Pacific  |   02:20 PM Mountain  |   03:20 PM Central  |   04:20 PM Eastern

 

ADVISORIES

FORECASTS

FORECASTS

OBSERVATIONS

USER TOOLS

ABOUT US